createdAt,value
2019-04-29T17:00:24.154Z,17.70
2019-04-29T17:02:53.888Z,17.50
2019-04-29T17:05:23.298Z,17.30
2019-04-29T17:07:53.045Z,17.20
2019-04-29T17:10:39.937Z,17.00
2019-04-29T17:13:16.708Z,16.90
2019-04-29T17:15:44.489Z,16.80
2019-04-29T17:18:11.363Z,16.70
2019-04-29T17:20:41.075Z,16.60
2019-04-29T17:23:10.820Z,16.50
2019-04-29T17:25:40.204Z,16.50
2019-04-29T17:28:11.982Z,16.50
2019-04-29T17:30:59.813Z,16.40
2019-04-29T17:33:32.118Z,16.40
2019-04-29T17:36:01.815Z,16.30
2019-04-29T17:38:30.979Z,16.20
2019-04-29T17:41:00.362Z,16.10
2019-04-29T17:43:38.331Z,16.10
2019-04-29T17:46:15.671Z,16.00
2019-04-29T17:48:53.141Z,16.00
2019-04-29T17:51:21.139Z,15.90
2019-04-29T17:53:55.474Z,15.70
2019-04-29T17:56:32.385Z,15.70
2019-04-29T17:59:06.980Z,15.70
2019-04-29T18:01:47.035Z,15.60
2019-04-29T18:04:21.347Z,15.60
2019-04-29T18:06:58.674Z,15.70
2019-04-29T18:09:34.473Z,15.80
2019-04-29T18:12:05.383Z,15.90
2019-04-29T18:14:40.416Z,15.90
2019-04-29T18:17:07.615Z,16.00
2019-04-29T18:19:45.186Z,16.00
2019-04-29T18:22:29.236Z,16.00
2019-04-29T18:25:03.227Z,16.00
2019-04-29T18:27:35.045Z,16.00
2019-04-29T18:30:07.170Z,15.90
2019-04-29T18:32:42.107Z,15.90
2019-04-29T18:35:07.761Z,15.80
2019-04-29T18:37:38.505Z,15.70
2019-04-29T18:40:08.315Z,15.70
2019-04-29T18:42:38.492Z,15.70
2019-04-29T18:45:09.193Z,15.70
2019-04-29T18:47:38.970Z,15.70
2019-04-29T18:50:09.397Z,15.70
2019-04-29T18:52:39.094Z,15.60
2019-04-29T18:55:08.650Z,15.60
2019-04-29T18:57:37.872Z,15.60
2019-04-29T19:00:12.517Z,15.60
2019-04-29T19:02:45.380Z,15.50
2019-04-29T19:05:14.976Z,15.50
2019-04-29T19:07:54.946Z,15.50
2019-04-29T19:10:18.488Z,15.50
2019-04-29T19:12:57.428Z,15.40
2019-04-29T19:15:17.870Z,15.30
2019-04-29T19:17:58.815Z,15.10
2019-04-29T19:20:20.858Z,15.10
2019-04-29T19:22:53.135Z,15.00
2019-04-29T19:25:20.020Z,15.00
2019-04-29T19:27:48.846Z,15.00
2019-04-29T19:30:21.175Z,15.10
2019-04-29T19:32:48.088Z,15.10
2019-04-29T19:35:17.207Z,15.10
2019-04-29T19:37:46.104Z,15.10
2019-04-29T19:40:15.142Z,15.10
2019-04-29T19:42:46.919Z,15.10
2019-04-29T19:45:17.165Z,15.20
2019-04-29T19:47:48.743Z,15.10
2019-04-29T19:50:19.498Z,15.00
2019-04-29T19:52:46.414Z,15.10
2019-04-29T19:55:15.031Z,15.10
2019-04-29T19:57:48.210Z,15.10
2019-04-29T20:00:17.371Z,15.00
2019-04-29T20:02:49.802Z,15.00
2019-04-29T20:05:18.358Z,15.00
2019-04-29T20:07:50.349Z,14.90
2019-04-29T20:10:18.722Z,14.90
2019-04-29T20:12:52.967Z,14.90
2019-04-29T20:15:19.058Z,14.90
2019-04-29T20:17:59.246Z,14.90
2019-04-29T20:20:41.812Z,14.90
2019-04-29T20:23:11.091Z,14.90
2019-04-29T20:25:40.376Z,14.90
2019-04-29T20:28:17.256Z,14.80
2019-04-29T20:30:40.092Z,14.80
2019-04-29T20:33:12.511Z,14.80
2019-04-29T20:35:40.325Z,14.80
2019-04-29T20:38:09.792Z,14.80
2019-04-29T20:40:42.821Z,14.80
2019-04-29T20:43:09.286Z,14.80
2019-04-29T20:45:39.243Z,14.70
2019-04-29T20:48:11.003Z,14.60
2019-04-29T20:50:40.733Z,14.50
2019-04-29T20:53:10.402Z,14.30
2019-04-29T20:55:39.211Z,14.20
2019-04-29T20:58:08.226Z,14.10
2019-04-29T21:00:39.065Z,14.00
2019-04-29T21:03:09.439Z,13.90
2019-04-29T21:05:47.364Z,13.80
2019-04-29T21:08:14.637Z,13.80
2019-04-29T21:10:43.043Z,13.70
2019-04-29T21:13:16.177Z,13.60
2019-04-29T21:15:45.054Z,13.60
2019-04-29T21:18:14.538Z,13.50
2019-04-29T21:20:45.166Z,13.50
2019-04-29T21:23:14.087Z,13.50
2019-04-29T21:25:43.091Z,13.40
2019-04-29T21:28:11.910Z,13.40
2019-04-29T21:30:42.729Z,13.40
2019-04-29T21:33:18.224Z,13.50
2019-04-29T21:35:57.954Z,13.40
2019-04-29T21:38:45.058Z,13.40
2019-04-29T21:41:20.123Z,13.40
2019-04-29T21:43:53.535Z,13.40
2019-04-29T21:46:27.826Z,13.30
2019-04-29T21:48:50.676Z,13.30
2019-04-29T21:51:20.413Z,13.40
2019-04-29T21:53:49.205Z,13.40
2019-04-29T21:56:17.988Z,13.30
2019-04-29T21:58:46.861Z,13.40
2019-04-29T22:01:15.900Z,13.40
2019-04-29T22:03:44.555Z,13.40
2019-04-29T22:06:13.202Z,13.40
2019-04-29T22:08:42.082Z,13.30
2019-04-29T22:11:10.874Z,13.30
2019-04-29T22:13:39.642Z,13.30
2019-04-29T22:16:11.574Z,13.30
2019-04-29T22:18:38.968Z,13.30
2019-04-29T22:21:10.123Z,13.40
2019-04-29T22:23:38.347Z,13.30
2019-04-29T22:26:07.072Z,13.30
2019-04-29T22:28:35.993Z,13.30
2019-04-29T22:31:07.592Z,13.30
2019-04-29T22:33:38.530Z,13.30
2019-04-29T22:36:10.230Z,13.30
2019-04-29T22:38:36.691Z,13.30
2019-04-29T22:41:06.994Z,13.40
2019-04-29T22:43:40.282Z,13.40
2019-04-29T22:46:09.503Z,13.40
2019-04-29T22:48:40.529Z,13.40
2019-04-29T22:51:10.166Z,13.30
2019-04-29T22:53:40.032Z,13.30
2019-04-29T22:56:14.106Z,13.30
2019-04-29T22:58:43.803Z,13.20
2019-04-29T23:01:11.230Z,13.20
2019-04-29T23:03:39.868Z,13.20
2019-04-29T23:06:08.644Z,13.20
2019-04-29T23:08:38.163Z,13.30
2019-04-29T23:11:07.233Z,13.40
2019-04-29T23:13:38.070Z,13.40
2019-04-29T23:16:09.917Z,13.50
2019-04-29T23:18:42.127Z,13.60
2019-04-29T23:21:11.065Z,13.70
2019-04-29T23:23:41.549Z,13.70
2019-04-29T23:26:10.347Z,13.70
2019-04-29T23:28:39.129Z,13.70
2019-04-29T23:31:08.157Z,13.80
2019-04-29T23:33:37.042Z,13.80
2019-04-29T23:36:09.673Z,13.70
2019-04-29T23:38:38.552Z,13.80
2019-04-29T23:41:07.099Z,13.80
2019-04-29T23:43:36.293Z,13.80
2019-04-29T23:46:05.084Z,13.70
2019-04-29T23:48:39.549Z,13.80
2019-04-29T23:51:05.389Z,13.70
2019-04-29T23:53:35.133Z,13.80
2019-04-29T23:56:05.575Z,13.70
2019-04-29T23:58:42.132Z,13.70
